X  Chiuso Dati meteorologici dell'aviazione (METAR)     YMML Melbourne International Airport
Temperatura
9°C Temperatura
8°C Punto di rugiada
94% Umidità



Vento
11 KM/O
7 MPH
3 M/S
6 KTS



270°
O
Condizioni attuali

Chiaro Chiaro
Pressione 1017.92 (hPa) - 30.06 (inHg)
Visibilità 6.2 (miglio) - 10 (km)
Aeroporto
Codice-Aeroporto YMML

Posizione: Melbourne International Airport
Distanza: 18 (km)

Metar:
YMML 311400Z 27006KT CAVOK 09/08 Q1018

Ore: 01-04-2023 01:00 AEDT